createdAt,value
2017-01-21T00:00:11.835Z,2.15
2017-01-21T00:01:11.407Z,2.19
2017-01-21T00:02:11.377Z,2.15
2017-01-21T00:03:11.346Z,2.25
2017-01-21T00:04:11.720Z,2.19
2017-01-21T00:05:10.940Z,2.16
2017-01-21T00:06:11.704Z,2.1
2017-01-21T00:07:11.253Z,2.22
2017-01-21T00:08:11.623Z,2.15
2017-01-21T00:09:11.591Z,2.25
2017-01-21T00:10:11.562Z,2.17
2017-01-21T00:11:11.172Z,2.2
2017-01-21T00:12:11.507Z,2.1
2017-01-21T00:13:11.488Z,2.15
2017-01-21T00:14:11.046Z,2.16
2017-01-21T00:15:11.415Z,2.12
2017-01-21T00:16:11.386Z,2.1
2017-01-21T00:17:10.968Z,2.13
2017-01-21T00:18:10.943Z,2.02
2017-01-21T00:19:10.931Z,2.02
2017-01-21T00:20:10.883Z,2.12
2017-01-21T00:21:11.256Z,2.07
2017-01-21T00:22:10.907Z,2.09
2017-01-21T00:23:10.805Z,2.12
2017-01-21T00:24:11.224Z,2.23
2017-01-21T00:25:11.152Z,2.16
2017-01-21T00:26:10.722Z,2.1
2017-01-21T00:27:10.697Z,2.19
2017-01-21T00:28:10.672Z,2.19
2017-01-21T00:29:10.651Z,2.2
2017-01-21T00:30:11.014Z,2.19
2017-01-21T00:31:11.000Z,2.17
2017-01-21T00:32:10.967Z,2.25
2017-01-21T00:33:10.949Z,2.16
2017-01-21T00:34:10.929Z,2.22
2017-01-21T00:35:10.078Z,2.17
2017-01-21T00:36:10.449Z,2.04
2017-01-21T00:37:10.017Z,2.2
2017-01-21T00:38:10.407Z,1.99
2017-01-21T00:39:10.376Z,2.16
2017-01-21T00:40:10.757Z,2.16
2017-01-21T00:41:10.724Z,2.17
2017-01-21T00:42:09.893Z,2.17
2017-01-21T00:43:09.863Z,2.15
2017-01-21T00:44:10.228Z,2.15
2017-01-21T00:45:10.221Z,2.16
2017-01-21T00:46:10.591Z,2.01
2017-01-21T00:47:10.149Z,2.04
2017-01-21T00:48:10.130Z,2.09
2017-01-21T00:49:10.099Z,2.13
2017-01-21T00:50:10.072Z,2.01
2017-01-21T00:51:10.486Z,2.17
2017-01-21T00:52:10.427Z,2.22
2017-01-21T00:53:09.983Z,2.15
2017-01-21T00:54:10.366Z,2.2
2017-01-21T00:55:09.935Z,2.17
2017-01-21T00:56:09.913Z,2.23
2017-01-21T00:57:10.284Z,2.02
2017-01-21T00:58:10.265Z,2.16
2017-01-21T00:59:09.831Z,2.2
2017-01-21T01:00:09.811Z,2.16
2017-01-21T01:01:10.181Z,2.15
2017-01-21T01:02:10.137Z,2.13
2017-01-21T01:03:09.320Z,2.12
2017-01-21T01:04:10.100Z,2.16
2017-01-21T01:05:09.665Z,2.01
2017-01-21T01:06:09.638Z,2.15
2017-01-21T01:07:09.607Z,2.09
2017-01-21T01:08:09.983Z,2.17
2017-01-21T01:09:09.559Z,2.07
2017-01-21T01:10:09.955Z,2.17
2017-01-21T01:11:09.897Z,2.15
2017-01-21T01:12:09.875Z,2.16
2017-01-21T01:13:09.884Z,2.12
2017-01-21T01:14:09.812Z,2.13
2017-01-21T01:15:09.403Z,2.23
2017-01-21T01:16:09.781Z,2.19
2017-01-21T01:17:09.341Z,2.17
2017-01-21T01:18:09.708Z,2.13
2017-01-21T01:19:09.290Z,2.13
2017-01-21T01:20:09.259Z,2.1
2017-01-21T01:21:09.235Z,2.17
2017-01-21T01:22:09.218Z,2.12
2017-01-21T01:23:08.772Z,2.04
2017-01-21T01:24:09.164Z,2.05
2017-01-21T01:25:09.523Z,2.04
2017-01-21T01:26:09.502Z,2.1
2017-01-21T01:27:09.472Z,2.04
2017-01-21T01:28:09.446Z,2.09
2017-01-21T01:29:08.614Z,2.07
2017-01-21T01:30:09.389Z,1.99
2017-01-21T01:31:08.958Z,1.99
2017-01-21T01:32:09.343Z,2.1
2017-01-21T01:33:08.921Z,2.1
2017-01-21T01:34:08.879Z,2.15
2017-01-21T01:35:08.861Z,2.05
2017-01-21T01:36:09.231Z,2.09
2017-01-21T01:37:09.191Z,1.98
2017-01-21T01:38:08.369Z,2.04
2017-01-21T01:39:09.146Z,2.05
2017-01-21T01:40:08.304Z,2.05
2017-01-21T01:41:08.698Z,2.04
2017-01-21T01:42:09.072Z,2.09
2017-01-21T01:43:08.637Z,2.04
2017-01-21T01:44:09.024Z,1.99
2017-01-21T01:45:08.977Z,2.02
2017-01-21T01:46:09.013Z,2.02
2017-01-21T01:47:08.530Z,2.04
2017-01-21T01:48:08.498Z,1.98
2017-01-21T01:49:08.874Z,2.01
2017-01-21T01:50:08.441Z,1.97
2017-01-21T01:51:08.823Z,1.91
2017-01-21T01:52:08.784Z,1.99
2017-01-21T01:53:08.798Z,2.02
2017-01-21T01:54:08.774Z,2.07
2017-01-21T01:55:08.770Z,2.04
2017-01-21T01:56:08.285Z,2.02
2017-01-21T01:57:08.256Z,1.93
2017-01-21T01:58:08.227Z,1.94
2017-01-21T01:59:08.198Z,1.98
2017-01-21T02:00:08.168Z,1.88
2017-01-21T02:01:08.585Z,1.83
2017-01-21T02:02:08.111Z,1.94
2017-01-21T02:03:07.679Z,2.01
2017-01-21T02:04:08.055Z,1.91
2017-01-21T02:05:08.031Z,1.97
2017-01-21T02:06:08.000Z,1.98
2017-01-21T02:07:07.993Z,1.98
2017-01-21T02:08:08.359Z,2.05
2017-01-21T02:09:07.930Z,2.04
2017-01-21T02:10:07.489Z,2.04
2017-01-21T02:11:07.866Z,2.05
2017-01-21T02:12:08.250Z,2.07
2017-01-21T02:13:07.811Z,1.98
2017-01-21T02:14:07.804Z,2.05
2017-01-21T02:15:08.171Z,1.99
2017-01-21T02:16:07.731Z,1.88
2017-01-21T02:17:07.708Z,1.91
2017-01-21T02:18:08.084Z,1.93
2017-01-21T02:19:08.069Z,1.88
2017-01-21T02:20:07.625Z,1.9
2017-01-21T02:21:07.604Z,1.93
2017-01-21T02:22:07.166Z,1.85
2017-01-21T02:23:07.662Z,1.98
2017-01-21T02:24:07.935Z,1.9
2017-01-21T02:25:07.146Z,1.93
2017-01-21T02:26:07.110Z,1.91
2017-01-21T02:27:07.839Z,1.86
2017-01-21T02:28:07.416Z,1.91
2017-01-21T02:29:07.781Z,1.91
2017-01-21T02:30:07.867Z,1.8
2017-01-21T02:31:07.322Z,1.88
2017-01-21T02:32:07.304Z,1.88
2017-01-21T02:33:07.683Z,1.8
2017-01-21T02:34:07.241Z,1.9
2017-01-21T02:35:07.618Z,1.88
2017-01-21T02:36:07.703Z,1.8
2017-01-21T02:37:07.170Z,1.9
2017-01-21T02:38:07.545Z,1.88
2017-01-21T02:39:07.108Z,1.82
2017-01-21T02:40:07.091Z,1.88
2017-01-21T02:41:07.452Z,1.94
2017-01-21T02:42:07.027Z,1.88
2017-01-21T02:43:07.403Z,1.88
2017-01-21T02:44:06.986Z,1.83
2017-01-21T02:45:06.956Z,1.88
2017-01-21T02:46:07.326Z,1.91
2017-01-21T02:47:06.885Z,1.98
2017-01-21T02:48:06.876Z,1.83
2017-01-21T02:49:06.874Z,1.9
2017-01-21T02:50:07.212Z,1.91
2017-01-21T02:51:06.782Z,1.93
2017-01-21T02:52:07.194Z,1.94
2017-01-21T02:53:06.331Z,1.88
2017-01-21T02:54:07.112Z,1.88
2017-01-21T02:55:06.680Z,1.91
2017-01-21T02:56:06.647Z,1.86
2017-01-21T02:57:06.625Z,1.91
2017-01-21T02:58:06.598Z,1.86
2017-01-21T02:59:06.971Z,1.9
2017-01-21T03:00:06.538Z,1.86
2017-01-21T03:01:06.114Z,1.82
2017-01-21T03:02:06.473Z,1.76
2017-01-21T03:03:06.456Z,1.83
2017-01-21T03:04:06.427Z,1.85
2017-01-21T03:05:06.426Z,1.82
2017-01-21T03:06:06.366Z,1.82
2017-01-21T03:07:06.754Z,1.65
2017-01-21T03:08:06.311Z,1.71
2017-01-21T03:09:06.294Z,1.72
2017-01-21T03:10:06.263Z,1.72
2017-01-21T03:11:06.639Z,1.71
2017-01-21T03:12:06.609Z,1.73
2017-01-21T03:13:06.182Z,1.79
2017-01-21T03:14:06.561Z,1.65
2017-01-21T03:15:06.531Z,1.68
2017-01-21T03:16:06.510Z,1.67
2017-01-21T03:17:06.070Z,1.68
2017-01-21T03:18:05.649Z,1.72
2017-01-21T03:19:06.420Z,1.72
2017-01-21T03:20:06.528Z,1.64
2017-01-21T03:21:05.555Z,1.65
2017-01-21T03:22:05.537Z,1.73
2017-01-21T03:23:05.917Z,1.61
2017-01-21T03:24:06.285Z,1.64
2017-01-21T03:25:06.256Z,1.61
2017-01-21T03:26:06.249Z,1.68
2017-01-21T03:27:05.792Z,1.65
2017-01-21T03:28:05.774Z,1.71
2017-01-21T03:29:05.739Z,1.67
2017-01-21T03:30:06.115Z,1.73
2017-01-21T03:31:05.678Z,1.67
2017-01-21T03:32:05.675Z,1.73
2017-01-21T03:33:05.630Z,1.73
2017-01-21T03:34:05.611Z,1.68
2017-01-21T03:35:06.007Z,1.75
2017-01-21T03:36:05.549Z,1.73
2017-01-21T03:37:05.618Z,1.68
2017-01-21T03:38:05.502Z,1.71
2017-01-21T03:39:05.972Z,1.6
2017-01-21T03:40:05.439Z,1.65
2017-01-21T03:41:05.826Z,1.61
2017-01-21T03:42:05.387Z,1.61
2017-01-21T03:43:05.788Z,1.54
2017-01-21T03:44:05.736Z,1.61
2017-01-21T03:45:05.306Z,1.6
2017-01-21T03:46:05.688Z,1.64
2017-01-21T03:47:05.708Z,1.64
2017-01-21T03:48:05.644Z,1.61
2017-01-21T03:49:05.611Z,1.57
2017-01-21T03:50:05.710Z,1.55
2017-01-21T03:51:05.284Z,1.57
2017-01-21T03:52:05.609Z,1.54
2017-01-21T03:53:05.132Z,1.6
2017-01-21T03:54:04.653Z,1.55
2017-01-21T03:55:05.033Z,1.49
2017-01-21T03:56:04.594Z,1.53
2017-01-21T03:57:04.980Z,1.53
2017-01-21T03:58:04.946Z,1.5
2017-01-21T03:59:05.342Z,1.5
2017-01-21T04:00:05.298Z,1.44
2017-01-21T04:01:04.868Z,1.46
2017-01-21T04:02:04.838Z,1.54
2017-01-21T04:03:04.817Z,1.55
2017-01-21T04:04:05.246Z,1.55
2017-01-21T04:05:04.783Z,1.55
2017-01-21T04:06:04.785Z,1.53
2017-01-21T04:07:05.145Z,1.53
2017-01-21T04:08:04.720Z,1.4
2017-01-21T04:09:05.054Z,1.49
2017-01-21T04:10:05.014Z,1.44
2017-01-21T04:11:05.043Z,1.43
2017-01-21T04:12:04.710Z,1.5
2017-01-21T04:13:04.932Z,1.5
2017-01-21T04:14:04.505Z,1.55
2017-01-21T04:15:04.504Z,1.42
2017-01-21T04:16:04.550Z,1.43
2017-01-21T04:17:04.417Z,1.42
2017-01-21T04:18:03.993Z,1.42
2017-01-21T04:19:04.370Z,1.47
2017-01-21T04:20:04.741Z,1.53
2017-01-21T04:21:04.313Z,1.39
2017-01-21T04:22:04.279Z,1.49
2017-01-21T04:23:04.276Z,1.4
2017-01-21T04:24:04.227Z,1.42
2017-01-21T04:25:04.215Z,1.4
2017-01-21T04:26:04.572Z,1.55
2017-01-21T04:27:03.739Z,1.44
2017-01-21T04:28:04.523Z,1.49
2017-01-21T04:29:04.093Z,1.57
2017-01-21T04:30:04.463Z,1.57
2017-01-21T04:31:03.632Z,1.54
2017-01-21T04:32:04.025Z,1.58
2017-01-21T04:33:04.381Z,1.5
2017-01-21T04:34:03.608Z,1.5
2017-01-21T04:35:04.330Z,1.5
2017-01-21T04:36:03.945Z,1.55
2017-01-21T04:37:03.871Z,1.47
2017-01-21T04:38:03.434Z,1.57
2017-01-21T04:39:03.422Z,1.49
2017-01-21T04:40:04.255Z,1.49
2017-01-21T04:41:03.754Z,1.46
2017-01-21T04:42:03.807Z,1.53
2017-01-21T04:43:04.117Z,1.53
2017-01-21T04:44:03.682Z,1.43
2017-01-21T04:45:04.059Z,1.36
2017-01-21T04:46:03.675Z,1.37
2017-01-21T04:47:03.593Z,1.4
2017-01-21T04:48:03.643Z,1.35
2017-01-21T04:49:03.949Z,1.26
2017-01-21T04:50:04.033Z,1.33
2017-01-21T04:51:03.882Z,1.29
2017-01-21T04:52:03.861Z,1.24
2017-01-21T04:53:03.831Z,1.29
2017-01-21T04:54:03.804Z,1.24
2017-01-21T04:55:03.372Z,1.26
2017-01-21T04:56:03.348Z,1.28
2017-01-21T04:57:03.768Z,1.26
2017-01-21T04:58:03.708Z,1.28
2017-01-21T04:59:03.318Z,1.24
2017-01-21T05:00:02.852Z,1.24
2017-01-21T05:01:03.216Z,1.29
2017-01-21T05:02:02.789Z,1.31
2017-01-21T05:03:03.155Z,1.26
2017-01-21T05:04:03.535Z,1.36
2017-01-21T05:05:03.504Z,1.29
2017-01-21T05:06:03.474Z,1.29
2017-01-21T05:07:03.053Z,1.37
2017-01-21T05:08:03.415Z,1.37
2017-01-21T05:09:03.458Z,1.42
2017-01-21T05:10:03.359Z,1.4
2017-01-21T05:11:03.336Z,1.42
2017-01-21T05:12:02.513Z,1.33
2017-01-21T05:13:02.941Z,1.31
2017-01-21T05:14:02.849Z,1.33
2017-01-21T05:15:03.229Z,1.31
2017-01-21T05:16:03.209Z,1.31
2017-01-21T05:17:03.168Z,1.31
2017-01-21T05:18:03.161Z,1.29
2017-01-21T05:19:03.123Z,1.33
2017-01-21T05:20:03.082Z,1.29
2017-01-21T05:21:02.646Z,1.26
2017-01-21T05:22:02.622Z,1.29
2017-01-21T05:23:02.197Z,1.35
2017-01-21T05:24:02.564Z,1.39
2017-01-21T05:25:02.930Z,1.29
2017-01-21T05:26:02.924Z,1.44
2017-01-21T05:27:02.888Z,1.37
2017-01-21T05:28:02.047Z,1.31
2017-01-21T05:29:02.832Z,1.28
2017-01-21T05:30:01.991Z,1.29
2017-01-21T05:31:02.381Z,1.26
2017-01-21T05:32:02.360Z,1.28
2017-01-21T05:33:02.333Z,1.33
2017-01-21T05:34:02.687Z,1.31
2017-01-21T05:35:01.859Z,1.25
2017-01-21T05:36:02.639Z,1.29
2017-01-21T05:37:02.209Z,1.29
2017-01-21T05:38:02.176Z,1.28
2017-01-21T05:39:02.567Z,1.28
2017-01-21T05:40:01.725Z,1.28
2017-01-21T05:41:02.503Z,1.29
2017-01-21T05:42:02.064Z,1.31
2017-01-21T05:43:02.058Z,1.33
2017-01-21T05:44:02.410Z,1.24
2017-01-21T05:45:02.064Z,1.33
2017-01-21T05:46:02.374Z,1.24
2017-01-21T05:47:02.340Z,1.31
2017-01-21T05:48:01.904Z,1.15
2017-01-21T05:49:02.301Z,1.35
2017-01-21T05:50:01.842Z,1.19
2017-01-21T05:51:01.951Z,1.13
2017-01-21T05:52:01.394Z,1.26
2017-01-21T05:53:01.800Z,1.22
2017-01-21T05:54:01.738Z,1.13
2017-01-21T05:55:01.718Z,1.29
2017-01-21T05:56:02.087Z,1.18
2017-01-21T05:57:01.644Z,1.25
2017-01-21T05:58:01.631Z,1.24
2017-01-21T05:59:01.596Z,1.21
2017-01-21T06:00:01.975Z,1.26
2017-01-21T06:01:01.941Z,1.15
2017-01-21T06:02:01.924Z,1.18
2017-01-21T06:03:01.893Z,1.24
2017-01-21T06:04:01.884Z,1.21
2017-01-21T06:05:01.423Z,1.11
2017-01-21T06:06:01.411Z,1.24
2017-01-21T06:07:01.042Z,1.18
2017-01-21T06:08:01.741Z,1.22
2017-01-21T06:09:00.920Z,1.18
2017-01-21T06:10:01.345Z,1.15
2017-01-21T06:11:01.663Z,1.19
2017-01-21T06:12:01.649Z,1.18
2017-01-21T06:13:01.608Z,1.11
2017-01-21T06:14:01.585Z,1.13
2017-01-21T06:15:01.550Z,1.1
2017-01-21T06:16:01.530Z,1.07
2017-01-21T06:17:01.496Z,1.08
2017-01-21T06:18:01.475Z,0.99
2017-01-21T06:19:01.440Z,0.99
2017-01-21T06:20:01.424Z,0.99
2017-01-21T06:21:01.394Z,0.92
2017-01-21T06:22:01.369Z,1.04
2017-01-21T06:23:01.325Z,0.99
2017-01-21T06:24:01.314Z,1.08
2017-01-21T06:25:01.300Z,1.11
2017-01-21T06:26:00.845Z,1.08
2017-01-21T06:27:01.231Z,1.18
2017-01-21T06:28:00.391Z,1.15
2017-01-21T06:29:00.758Z,1.17
2017-01-21T06:30:01.139Z,1.22
2017-01-21T06:31:01.159Z,1.19
2017-01-21T06:32:00.285Z,1.19
2017-01-21T06:33:00.248Z,1.17
2017-01-21T06:34:01.028Z,1.24
2017-01-21T06:35:00.607Z,1.17
2017-01-21T06:36:00.166Z,1.17
2017-01-21T06:37:00.546Z,1.17
2017-01-21T06:38:00.913Z,1.15
2017-01-21T06:39:00.878Z,1.08
2017-01-21T06:40:00.472Z,1.19
2017-01-21T06:41:00.431Z,1.11
2017-01-21T06:42:00.394Z,1.17
2017-01-21T06:42:59.961Z,1.21
2017-01-21T06:44:00.343Z,1.17
2017-01-21T06:45:00.312Z,1.08
2017-01-21T06:46:00.290Z,1.15
2017-01-21T06:47:00.259Z,1.07
2017-01-21T06:48:00.232Z,1.06
2017-01-21T06:49:00.198Z,1.03
2017-01-21T06:50:00.179Z,1.06
2017-01-21T06:51:00.144Z,1.07
2017-01-21T06:52:00.116Z,1.07
2017-01-21T06:53:00.487Z,1.04
2017-01-21T06:54:00.069Z,1.03
2017-01-21T06:54:59.634Z,1.01
2017-01-21T06:56:00.396Z,1.1
2017-01-21T06:56:59.967Z,1.04
2017-01-21T06:57:59.942Z,1.03
2017-01-21T06:59:00.332Z,1.08
2017-01-21T07:00:00.299Z,1.04
2017-01-21T07:00:59.855Z,1.06
2017-01-21T07:02:00.241Z,1.03
2017-01-21T07:02:59.804Z,1.08
2017-01-21T07:04:00.173Z,1.01
2017-01-21T07:04:59.750Z,1.07
2017-01-21T07:06:00.138Z,1.13
2017-01-21T07:06:59.697Z,1.03
2017-01-21T07:07:59.680Z,1.04
2017-01-21T07:08:59.634Z,1.07
2017-01-21T07:09:59.616Z,1.06
2017-01-21T07:10:59.586Z,1.08
2017-01-21T07:11:59.960Z,1.07
2017-01-21T07:12:59.525Z,1.07
2017-01-21T07:13:59.498Z,1.07
2017-01-21T07:14:59.471Z,1.04
2017-01-21T07:15:59.832Z,1.04
2017-01-21T07:16:59.823Z,1.1
2017-01-21T07:17:59.791Z,1.08
2017-01-21T07:18:59.809Z,1.03
2017-01-21T07:19:59.355Z,1.08
2017-01-21T07:20:59.296Z,1.13
2017-01-21T07:21:59.709Z,1.08
2017-01-21T07:22:59.249Z,1.1
2017-01-21T07:23:59.648Z,0.99
2017-01-21T07:24:58.798Z,1.1
2017-01-21T07:25:59.162Z,1.08
2017-01-21T07:26:59.530Z,1.18
2017-01-21T07:27:59.105Z,1.15
2017-01-21T07:28:59.097Z,1.15
2017-01-21T07:29:59.462Z,1.08
2017-01-21T07:30:58.623Z,1.11
2017-01-21T07:31:59.005Z,1.1
2017-01-21T07:32:58.964Z,1.13
2017-01-21T07:33:59.413Z,1.04
2017-01-21T07:34:59.322Z,1.11
2017-01-21T07:35:59.342Z,1.1
2017-01-21T07:36:58.456Z,1.19
2017-01-21T07:37:58.838Z,1.19
2017-01-21T07:38:59.241Z,1.18
2017-01-21T07:39:59.191Z,1.21
2017-01-21T07:40:58.342Z,1.19
2017-01-21T07:41:58.322Z,1.17
2017-01-21T07:42:58.694Z,1.22
2017-01-21T07:43:59.318Z,1.21
2017-01-21T07:44:58.243Z,1.19
2017-01-21T07:45:58.613Z,1.18
2017-01-21T07:46:58.576Z,1.22
2017-01-21T07:47:58.556Z,1.19
2017-01-21T07:48:58.525Z,1.15
2017-01-21T07:49:58.894Z,1.19
2017-01-21T07:50:58.874Z,1.18
2017-01-21T07:51:58.843Z,1.28
2017-01-21T07:52:58.920Z,1.26
2017-01-21T07:53:58.826Z,1.29
2017-01-21T07:54:58.761Z,1.24
2017-01-21T07:55:58.771Z,1.21
2017-01-21T07:56:58.305Z,1.24
2017-01-21T07:57:58.279Z,1.24
2017-01-21T07:58:58.667Z,1.28
2017-01-21T07:59:58.630Z,1.24
2017-01-21T08:00:58.598Z,1.33
2017-01-21T08:01:58.167Z,1.37
2017-01-21T08:02:58.537Z,1.46
2017-01-21T08:03:58.508Z,1.47
2017-01-21T08:04:58.486Z,1.42
2017-01-21T08:05:58.452Z,1.49
2017-01-21T08:06:57.620Z,1.54
2017-01-21T08:07:57.988Z,1.4
2017-01-21T08:08:58.383Z,1.55
2017-01-21T08:09:57.936Z,1.58
2017-01-21T08:10:58.331Z,1.44
2017-01-21T08:11:57.884Z,1.47
2017-01-21T08:12:58.262Z,1.55
2017-01-21T08:13:57.868Z,1.61
2017-01-21T08:14:58.201Z,1.67
2017-01-21T08:15:57.776Z,1.91
2017-01-21T08:16:57.756Z,2.17
2017-01-21T08:17:57.720Z,2.2
2017-01-21T08:18:57.693Z,2.3
2017-01-21T08:19:58.070Z,2.33
2017-01-21T08:20:58.053Z,2.33
2017-01-21T08:21:58.023Z,2.38
2017-01-21T08:22:57.991Z,2.4
2017-01-21T08:23:57.565Z,2.52
2017-01-21T08:24:57.527Z,2.77
2017-01-21T08:25:57.510Z,3.02
2017-01-21T08:26:57.894Z,3.28
2017-01-21T08:27:57.487Z,3.4
2017-01-21T08:28:57.420Z,3.4
2017-01-21T08:29:57.789Z,3.56
2017-01-21T08:30:57.365Z,3.42
2017-01-21T08:31:57.358Z,3.43
2017-01-21T08:32:57.319Z,3.23
2017-01-21T08:33:56.966Z,3.5
2017-01-21T08:34:57.263Z,3.46
2017-01-21T08:35:57.729Z,3.56
2017-01-21T08:36:57.216Z,3.65
2017-01-21T08:37:56.776Z,3.52
2017-01-21T08:38:57.203Z,3.72
2017-01-21T08:39:57.609Z,3.67
2017-01-21T08:40:57.632Z,3.71
2017-01-21T08:41:57.080Z,3.67
2017-01-21T08:42:57.065Z,3.64
2017-01-21T08:43:57.513Z,3.52
2017-01-21T08:44:56.616Z,3.75
2017-01-21T08:45:57.380Z,4.04
2017-01-21T08:46:57.358Z,4.55
2017-01-21T08:47:56.941Z,5.06
2017-01-21T08:48:57.322Z,5.6
2017-01-21T08:49:56.887Z,5.96
2017-01-21T08:50:56.456Z,6.45
2017-01-21T08:51:57.255Z,6.84
2017-01-21T08:52:56.817Z,7.06
2017-01-21T08:53:56.784Z,7.52
2017-01-21T08:54:57.168Z,7.86
2017-01-21T08:55:57.164Z,8.22
2017-01-21T08:56:57.132Z,8.36
2017-01-21T08:57:56.713Z,8.72
2017-01-21T08:58:56.685Z,8.84
2017-01-21T08:59:56.661Z,9.13
2017-01-21T09:00:57.050Z,9.46
2017-01-21T09:01:57.024Z,9.6
2017-01-21T09:02:57.012Z,9.71
2017-01-21T09:03:56.587Z,9.83
2017-01-21T09:04:56.965Z,9.82
2017-01-21T09:05:56.970Z,9.97
2017-01-21T09:06:56.927Z,10.08
2017-01-21T09:07:56.144Z,10.28
2017-01-21T09:08:56.093Z,10.29
2017-01-21T09:09:56.927Z,10.43
2017-01-21T09:10:56.052Z,10.33
2017-01-21T09:11:56.901Z,10.44
2017-01-21T09:12:56.024Z,10.41
2017-01-21T09:13:56.815Z,10.36
2017-01-21T09:14:56.801Z,10.22
2017-01-21T09:15:56.364Z,10.38
2017-01-21T09:16:56.362Z,10.34
2017-01-21T09:17:56.795Z,10.47
2017-01-21T09:18:56.732Z,10.55
2017-01-21T09:19:56.301Z,10.6
2017-01-21T09:20:56.687Z,10.67
2017-01-21T09:21:56.690Z,11
2017-01-21T09:22:56.255Z,10.92
2017-01-21T09:23:56.660Z,10.98
2017-01-21T09:24:56.650Z,11
2017-01-21T09:25:56.219Z,11.32
2017-01-21T09:26:56.197Z,11.1
2017-01-21T09:27:56.210Z,11.14
2017-01-21T09:28:56.176Z,10.98
2017-01-21T09:29:56.596Z,11.08
2017-01-21T09:30:56.554Z,11.31
2017-01-21T09:31:56.582Z,11.05
2017-01-21T09:32:56.512Z,10.93
2017-01-21T09:33:56.112Z,11.14
2017-01-21T09:34:56.477Z,11.06
2017-01-21T09:35:56.129Z,11.08
2017-01-21T09:36:56.448Z,11.02
2017-01-21T09:37:56.136Z,10.98
2017-01-21T09:38:56.445Z,10.78
2017-01-21T09:39:56.509Z,11.06
2017-01-21T09:40:55.991Z,10.95
2017-01-21T09:41:56.428Z,11.02
2017-01-21T09:42:56.383Z,11.18
2017-01-21T09:43:56.366Z,11.28
2017-01-21T09:44:56.339Z,10.96
2017-01-21T09:45:56.036Z,10.59
2017-01-21T09:46:56.311Z,10.87
2017-01-21T09:47:55.929Z,10.36
2017-01-21T09:48:55.883Z,10.6
2017-01-21T09:49:56.294Z,10.59
2017-01-21T09:50:55.849Z,10.29
2017-01-21T09:51:55.882Z,9.97
2017-01-21T09:52:56.230Z,10.23
2017-01-21T09:53:56.244Z,10.16
2017-01-21T09:54:56.208Z,10.36
2017-01-21T09:55:55.829Z,10.52
2017-01-21T09:56:56.227Z,10.93
2017-01-21T09:57:56.256Z,11
2017-01-21T09:58:56.154Z,11.05
2017-01-21T09:59:56.146Z,10.99
2017-01-21T10:00:55.739Z,10.93
2017-01-21T10:01:56.214Z,11.2
2017-01-21T10:02:56.104Z,11.58
2017-01-21T10:03:56.082Z,11.1
2017-01-21T10:04:56.065Z,11.03
2017-01-21T10:05:55.661Z,11.08
2017-01-21T10:06:55.631Z,11.15
2017-01-21T10:07:56.041Z,11.4
2017-01-21T10:08:56.019Z,11.23
2017-01-21T10:09:56.009Z,11.79
2017-01-21T10:10:55.977Z,11.91
2017-01-21T10:11:55.620Z,12.17
2017-01-21T10:12:55.957Z,12.2
2017-01-21T10:13:55.950Z,12.35
2017-01-21T10:14:55.537Z,12.35
2017-01-21T10:15:55.535Z,12.5
2017-01-21T10:16:55.497Z,12.65
2017-01-21T10:17:55.903Z,12.88
2017-01-21T10:18:55.485Z,13.08
2017-01-21T10:19:55.869Z,13.14
2017-01-21T10:20:55.857Z,12.98
2017-01-21T10:21:55.539Z,12.96
2017-01-21T10:22:55.130Z,13.11
2017-01-21T10:23:55.815Z,13.08
2017-01-21T10:24:55.087Z,12.97
2017-01-21T10:25:55.394Z,12.88
2017-01-21T10:26:55.783Z,12.81
2017-01-21T10:27:55.416Z,13.15
2017-01-21T10:28:55.767Z,13.21
2017-01-21T10:29:55.753Z,13.08
2017-01-21T10:30:55.736Z,13.1
2017-01-21T10:31:55.335Z,12.98
2017-01-21T10:32:55.313Z,12.88
2017-01-21T10:33:55.713Z,13.04
2017-01-21T10:34:55.284Z,13.23
2017-01-21T10:35:55.768Z,13.44
2017-01-21T10:36:55.684Z,12.83
2017-01-21T10:37:55.251Z,12.37
2017-01-21T10:38:55.639Z,12.45
2017-01-21T10:39:54.811Z,12.46
2017-01-21T10:40:55.196Z,12.73
2017-01-21T10:41:55.236Z,13
2017-01-21T10:42:55.186Z,12.76
2017-01-21T10:43:55.183Z,12.74
2017-01-21T10:44:55.586Z,12.64
2017-01-21T10:45:55.138Z,12.46
2017-01-21T10:46:55.569Z,12.97
2017-01-21T10:47:55.525Z,13.15
2017-01-21T10:48:55.515Z,13.21
2017-01-21T10:49:55.525Z,13.29
2017-01-21T10:50:55.073Z,13.57
2017-01-21T10:51:55.475Z,13.65
2017-01-21T10:52:54.664Z,13.75
2017-01-21T10:53:55.042Z,13.67
2017-01-21T10:54:55.452Z,13.97
2017-01-21T10:55:55.422Z,14.33
2017-01-21T10:56:55.001Z,14.38
2017-01-21T10:57:55.491Z,14.65
2017-01-21T10:58:55.391Z,14.26
2017-01-21T10:59:54.981Z,13.22
2017-01-21T11:00:55.361Z,13.44
2017-01-21T11:01:55.477Z,13.8
2017-01-21T11:02:54.970Z,14.11
2017-01-21T11:03:55.310Z,14.18
2017-01-21T11:04:54.905Z,14.48
2017-01-21T11:05:54.489Z,14.6
2017-01-21T11:06:55.278Z,14.84
2017-01-21T11:07:54.872Z,15.1
2017-01-21T11:08:54.858Z,14.89
2017-01-21T11:09:54.847Z,15.07
2017-01-21T11:10:54.826Z,14.65
2017-01-21T11:11:54.826Z,14.57
2017-01-21T11:12:54.815Z,14.38
2017-01-21T11:13:54.786Z,13.92
2017-01-21T11:14:54.383Z,13.45
2017-01-21T11:15:55.174Z,13.7
2017-01-21T11:16:54.344Z,13.93
2017-01-21T11:17:54.755Z,14.21
2017-01-21T11:18:55.142Z,14.15
2017-01-21T11:19:54.724Z,13.63
2017-01-21T11:20:54.304Z,13.62
2017-01-21T11:21:55.102Z,13.95
2017-01-21T11:22:55.075Z,14.18
2017-01-21T11:23:55.062Z,14.44
2017-01-21T11:24:54.671Z,14.38
2017-01-21T11:25:55.051Z,14.22
2017-01-21T11:26:54.241Z,14.36
2017-01-21T11:27:55.018Z,14.48
2017-01-21T11:28:54.996Z,14.42
2017-01-21T11:29:54.589Z,14.42
2017-01-21T11:30:54.989Z,14.62
2017-01-21T11:31:54.959Z,14.21
2017-01-21T11:32:54.965Z,14.18
2017-01-21T11:33:54.948Z,14.46
2017-01-21T11:34:54.528Z,14.36
2017-01-21T11:35:54.518Z,14.39
2017-01-21T11:36:54.898Z,14.57
2017-01-21T11:37:54.518Z,14.51
2017-01-21T11:38:54.883Z,14.14
2017-01-21T11:39:54.864Z,13.63
2017-01-21T11:40:54.858Z,13.66
2017-01-21T11:41:54.446Z,13.81
2017-01-21T11:42:54.826Z,14.21
2017-01-21T11:43:54.417Z,14.28
2017-01-21T11:44:54.825Z,14.03
2017-01-21T11:45:54.796Z,14.32
2017-01-21T11:46:54.384Z,14.57
2017-01-21T11:47:54.764Z,14.62
2017-01-21T11:48:54.749Z,14.73
2017-01-21T11:49:54.336Z,14.63
2017-01-21T11:50:54.712Z,14.48
2017-01-21T11:51:54.301Z,14.32
2017-01-21T11:52:54.692Z,14.51
2017-01-21T11:53:54.273Z,14.58
2017-01-21T11:54:54.669Z,14.84
2017-01-21T11:55:54.270Z,14.87
2017-01-21T11:56:54.642Z,15.06
2017-01-21T11:57:54.268Z,15.07
2017-01-21T11:58:54.618Z,15.07
2017-01-21T11:59:54.201Z,15.47
2017-01-21T12:00:54.585Z,15.52
2017-01-21T12:01:54.586Z,15.46
2017-01-21T12:02:54.556Z,14.85
2017-01-21T12:03:54.148Z,14.47
2017-01-21T12:04:54.145Z,14.33
2017-01-21T12:05:54.515Z,14.38
2017-01-21T12:06:54.516Z,14.46
2017-01-21T12:07:54.113Z,14.68
2017-01-21T12:08:53.682Z,14.58
2017-01-21T12:09:54.062Z,14.63
2017-01-21T12:10:54.469Z,14.63
2017-01-21T12:11:54.555Z,14.4
2017-01-21T12:12:54.421Z,13.93
2017-01-21T12:13:53.601Z,13.75
2017-01-21T12:14:54.394Z,13.59
2017-01-21T12:15:54.446Z,13.74
2017-01-21T12:16:53.970Z,13.97
2017-01-21T12:17:54.369Z,14
2017-01-21T12:18:53.939Z,14.14
2017-01-21T12:19:53.607Z,14.29
2017-01-21T12:20:53.500Z,13.65
2017-01-21T12:21:54.325Z,13.22
2017-01-21T12:22:54.298Z,13.77
2017-01-21T12:23:54.277Z,13.65
2017-01-21T12:24:54.266Z,13.56
2017-01-21T12:25:53.847Z,13.92
2017-01-21T12:26:54.381Z,14.21
2017-01-21T12:27:54.251Z,13.31
2017-01-21T12:28:54.205Z,13.23
2017-01-21T12:29:53.832Z,13.14
2017-01-21T12:30:54.170Z,13.26
2017-01-21T12:31:54.170Z,13.62
2017-01-21T12:32:53.740Z,13.8
2017-01-21T12:33:54.191Z,14.18
2017-01-21T12:34:54.181Z,14.25
2017-01-21T12:35:53.803Z,14.46
2017-01-21T12:36:54.091Z,14.6
2017-01-21T12:37:53.721Z,14.72
2017-01-21T12:38:54.112Z,14.77
2017-01-21T12:39:54.104Z,14.26
2017-01-21T12:40:53.629Z,14.5
2017-01-21T12:41:53.617Z,14.39
2017-01-21T12:42:53.597Z,14.3
2017-01-21T12:43:54.004Z,14.22
2017-01-21T12:44:53.578Z,14.14
2017-01-21T12:45:53.957Z,14.03
2017-01-21T12:46:53.943Z,14.14
2017-01-21T12:47:53.596Z,14.22
2017-01-21T12:48:53.913Z,14.05
2017-01-21T12:49:53.901Z,14.05
2017-01-21T12:50:53.885Z,14.08
2017-01-21T12:51:53.060Z,14.17
2017-01-21T12:52:53.854Z,14.22
2017-01-21T12:53:53.839Z,14.35
2017-01-21T12:54:53.421Z,14.38
2017-01-21T12:55:53.412Z,14.47
2017-01-21T12:56:53.794Z,14.14
2017-01-21T12:57:53.785Z,14.1
2017-01-21T12:58:53.387Z,13.85
2017-01-21T12:59:53.746Z,14.05
2017-01-21T13:00:53.746Z,13.97
2017-01-21T13:01:53.720Z,13.65
2017-01-21T13:02:53.315Z,13.7
2017-01-21T13:03:53.698Z,13.77
2017-01-21T13:04:53.286Z,13.72
2017-01-21T13:05:53.261Z,13.71
2017-01-21T13:06:53.668Z,13.63
2017-01-21T13:07:53.685Z,13.49
2017-01-21T13:08:53.247Z,13.59
2017-01-21T13:09:53.607Z,13.56
2017-01-21T13:10:53.192Z,13.59
2017-01-21T13:11:53.275Z,13.18
2017-01-21T13:12:53.185Z,13.31